Time;durP1;ratioP1;P1;durP2;ratioP2;P2;SDS_P1;SDS_P2;PMS_P1;PMS_P2;Temp;Humidity;BMP_temperature;BMP_pressure;BME280_temperature;BME280_humidity;BME280_pressure;Samples;Min_cycle;Max_cycle;Signal;HPM_P1;HPM_P2
2022/09/13 00:01:13;;;;;;;7.55;6.70;;;;;;;19.51;75.57;101023.06;5018280;28;20442;-65
2022/09/13 00:03:39;;;;;;;12.52;6.93;;;;;;;19.55;75.69;101024.81;5001280;28;20034;-65
2022/09/13 00:06:10;;;;;;;7.82;6.70;;;;;;;19.60;75.68;101027.41;5001279;28;20108;-65
2022/09/13 00:08:36;;;;;;;9.18;6.93;;;;;;;19.51;75.35;101020.47;5008795;28;20037;-65
2022/09/13 00:11:02;;;;;;;8.57;6.82;;;;;;;19.54;75.21;101025.69;5012887;28;20025;-65
2022/09/13 00:13:27;;;;;;;7.72;6.93;;;;;;;19.54;75.14;101025.69;5013536;28;20079;-65
2022/09/13 00:15:52;;;;;;;9.85;6.95;;;;;;;19.56;74.75;101023.91;5012894;28;20025;-65
2022/09/13 00:18:18;;;;;;;8.35;6.75;;;;;;;19.53;75.01;101018.69;5015202;28;20065;-65
2022/09/13 00:20:44;;;;;;;10.90;6.88;;;;;;;19.53;75.25;101019.56;5015350;28;20091;-66
2022/09/13 00:23:10;;;;;;;10.50;7.22;;;;;;;19.52;74.54;101022.19;5014389;28;20034;-65
2022/09/13 00:25:36;;;;;;;11.30;7.50;;;;;;;19.53;74.77;101013.50;5019157;28;20033;-65
2022/09/13 00:28:03;;;;;;;9.25;7.18;;;;;;;19.48;75.01;101010.06;5019493;28;20025;-65
2022/09/13 00:30:29;;;;;;;10.48;7.30;;;;;;;19.50;74.50;101003.09;5011586;28;20029;-65
2022/09/13 00:32:54;;;;;;;10.35;7.30;;;;;;;19.50;74.44;101003.97;5019580;28;20033;-65
2022/09/13 00:35:20;;;;;;;10.30;7.45;;;;;;;19.48;74.33;100995.28;5014068;28;20457;-64
2022/09/13 00:37:45;;;;;;;11.25;7.85;;;;;;;19.43;74.29;100994.44;4999627;28;20038;-65
2022/09/13 00:40:10;;;;;;;10.43;7.32;;;;;;;19.35;74.26;100990.13;5009345;28;20033;-65
2022/09/13 00:42:36;;;;;;;8.73;7.40;;;;;;;19.44;74.33;100996.16;5015299;28;20035;-65
2022/09/13 00:45:02;;;;;;;9.80;7.72;;;;;;;19.36;74.13;100987.53;5015156;28;20036;-65
2022/09/13 00:47:39;;;;;;;10.35;6.97;;;;;;;19.40;74.68;100989.22;5016475;28;20033;-65
2022/09/13 00:50:13;;;;;;;10.27;6.88;;;;;;;19.38;74.54;100985.78;5018110;28;20033;-65
2022/09/13 00:52:40;;;;;;;9.88;6.85;;;;;;;19.35;74.87;100987.53;5015189;28;20057;-65
2022/09/13 00:55:18;;;;;;;10.18;6.95;;;;;;;19.38;74.57;100975.34;5015963;28;20017;-64
2022/09/13 00:57:43;;;;;;;8.93;6.55;;;;;;;19.34;74.73;100980.59;5016438;28;20116;-66
2022/09/13 01:00:12;;;;;;;9.27;6.50;;;;;;;19.39;74.50;100971.00;5019373;28;21770;-66
2022/09/13 01:02:56;;;;;;;;;;;;;;;19.54;73.31;100973.50;5019402;28;20040;-66
2022/09/13 01:05:26;;;;;;;10.32;6.80;;;;;;;19.38;74.55;100985.78;5016591;28;19927;-66
2022/09/13 01:07:53;;;;;;;9.60;6.85;;;;;;;19.29;74.22;100981.50;5015906;28;20103;-66
2022/09/13 01:10:18;;;;;;;8.32;6.55;;;;;;;19.29;74.38;100973.69;5008807;28;20033;-65
2022/09/13 01:13:13;;;;;;;9.38;6.82;;;;;;;19.36;73.87;100969.28;5014343;28;20061;-65
2022/09/13 01:15:39;;;;;;;9.35;6.75;;;;;;;19.33;74.43;100976.25;5019372;28;20033;-65
2022/09/13 01:18:06;;;;;;;8.30;6.50;;;;;;;19.27;74.21;100972.78;5018390;28;20037;-65
2022/09/13 01:20:51;;;;;;;9.45;6.68;;;;;;;19.34;74.58;100978.84;5017213;28;20061;-66
2022/09/13 01:23:25;;;;;;;9.13;7.05;;;;;;;19.35;74.25;100982.31;5013804;28;20030;-66
2022/09/13 01:26:32;;;;;;;8.57;6.60;;;;;;;19.38;73.83;100982.31;4998711;28;20575;-65
2022/09/13 01:29:23;;;;;;;11.00;7.40;;;;;;;19.31;74.26;100978.00;4941870;28;20137;-64
2022/09/13 01:31:53;;;;;;;10.23;7.07;;;;;;;19.29;74.20;100980.59;5021850;28;20056;-66
2022/09/13 01:34:44;;;;;;;10.40;6.60;;;;;;;19.33;73.93;100974.50;5020793;28;20072;-66
2022/09/13 01:37:47;;;;;;;8.93;7.07;;;;;;;19.31;73.54;100975.41;5012242;28;20042;-66
2022/09/13 01:40:31;;;;;;;8.38;6.80;;;;;;;19.27;73.96;100978.00;5016343;28;20179;-66
2022/09/13 01:43:20;;;;;;;7.93;6.75;;;;;;;19.21;73.85;100978.03;5012982;28;20030;-66
2022/09/13 01:46:08;;;;;;;10.23;7.32;;;;;;;19.22;74.12;100979.78;5018762;28;20147;-66
2022/09/13 01:49:08;;;;;;;9.68;7.00;;;;;;;19.20;74.28;100965.91;5003519;28;20072;-66
2022/09/13 01:51:38;;;;;;;10.05;6.72;;;;;;;19.07;75.21;100966.84;5020117;28;20031;-66
2022/09/13 01:54:19;;;;;;;;;;;;;;;19.28;73.67;100966.69;5020422;28;20034;-66
2022/09/13 01:57:02;;;;;;;8.20;6.60;;;;;;;19.15;74.76;100975.47;5015350;28;19921;-66
2022/09/13 01:59:50;;;;;;;8.65;6.90;;;;;;;19.13;74.75;100978.97;5016036;28;20029;-66
2022/09/13 02:02:41;;;;;;;9.93;6.68;;;;;;;19.12;75.21;100956.41;5021981;28;22085;-65
2022/09/13 02:05:21;;;;;;;8.50;6.72;;;;;;;19.10;75.73;100963.34;5009058;28;20520;-66
2022/09/13 02:07:59;;;;;;;8.27;6.53;;;;;;;19.09;75.05;100962.47;5016915;28;20109;-65
2022/09/13 02:10:58;;;;;;;8.88;7.03;;;;;;;19.15;74.91;100957.22;5013509;28;20026;-65
2022/09/13 02:13:32;;;;;;;10.52;8.02;;;;;;;19.05;74.53;100958.19;5013186;28;20073;-64
2022/09/13 02:16:07;;;;;;;8.73;7.35;;;;;;;19.08;75.16;100959.88;5018543;28;20041;-65
2022/09/13 02:18:46;;;;;;;10.10;7.22;;;;;;;19.07;75.45;100956.41;5016670;28;20491;-64
2022/09/13 02:21:16;;;;;;;9.02;7.03;;;;;;;19.07;75.90;100966.84;5017655;28;20026;-65
2022/09/13 02:23:54;;;;;;;9.98;7.40;;;;;;;19.07;76.33;100969.44;5019304;28;20033;-65
2022/09/13 02:26:22;;;;;;;10.05;7.25;;;;;;;19.07;76.18;100968.59;5020125;28;20043;-65
2022/09/13 02:28:52;;;;;;;9.57;6.70;;;;;;;19.05;76.77;100966.00;5017486;28;20029;-65
2022/09/13 02:31:45;;;;;;;8.88;6.60;;;;;;;19.08;76.04;100965.97;5017004;28;20111;-65
2022/09/13 02:34:21;;;;;;;8.15;6.75;;;;;;;19.02;76.35;100964.25;5015994;28;20473;-64
2022/09/13 02:36:50;;;;;;;13.20;6.85;;;;;;;19.01;76.67;100959.91;5002321;28;20149;-65
2022/09/13 02:39:20;;;;;;;10.17;6.97;;;;;;;19.03;77.47;100962.50;5013742;28;20048;-65
2022/09/13 02:41:51;;;;;;;8.07;6.50;;;;;;;18.97;77.75;100962.53;5021287;28;20030;-64
2022/09/13 02:44:26;;;;;;;11.18;7.05;;;;;;;18.99;77.84;100960.81;5011329;28;20131;-65
2022/09/13 02:47:13;;;;;;;10.88;6.95;;;;;;;19.00;78.07;100965.16;5017811;28;20029;-65
2022/09/13 02:50:09;;;;;;;10.50;7.05;;;;;;;19.07;76.99;100973.78;5015533;28;20494;-65
2022/09/13 02:52:53;;;;;;;10.23;7.60;;;;;;;19.03;76.76;100975.53;5017741;28;20037;-65
2022/09/13 02:55:20;;;;;;;11.27;7.85;;;;;;;19.01;76.54;100980.78;5015987;28;20024;-64
2022/09/13 02:58:03;;;;;;;9.30;7.45;;;;;;;19.00;76.12;100986.00;5018365;28;20534;-65
2022/09/13 03:00:30;;;;;;;10.52;8.05;;;;;;;19.00;75.76;100986.84;5019583;28;20099;-64
2022/09/13 03:02:58;;;;;;;10.18;7.90;;;;;;;19.00;75.95;100989.47;5019920;28;20155;-65
2022/09/13 03:05:24;;;;;;;12.90;7.85;;;;;;;18.97;76.22;100992.06;5017639;28;20029;-65
2022/09/13 03:07:51;;;;;;;11.40;7.97;;;;;;;18.97;76.55;100988.59;5019438;28;20563;-64
2022/09/13 03:10:17;;;;;;;11.68;7.53;;;;;;;18.95;76.00;100988.63;5018365;28;20052;-64
2022/09/13 03:13:23;;;;;;;12.82;8.52;;;;;;;19.00;76.06;100979.03;5017885;28;20026;-64
2022/09/13 03:15:49;;;;;;;10.13;8.02;;;;;;;18.94;76.49;100983.41;4973913;28;20042;-64
2022/09/13 03:18:40;;;;;;;9.98;7.82;;;;;;;19.02;76.90;100982.50;5016169;28;20033;-65
2022/09/13 03:21:18;;;;;;;11.30;8.13;;;;;;;18.95;77.48;100980.78;5018527;28;20060;-64
2022/09/13 03:23:44;;;;;;;10.00;8.07;;;;;;;18.94;77.72;100978.19;5018308;28;20026;-64
2022/09/13 03:26:24;;;;;;;12.02;8.65;;;;;;;18.93;78.21;100987.75;5014446;28;20475;-64
2022/09/13 03:29:12;;;;;;;9.20;8.20;;;;;;;18.94;77.36;100986.88;5013565;28;20398;-65
2022/09/13 03:31:49;;;;;;;12.40;7.95;;;;;;;18.90;77.60;100986.91;5014785;28;20034;-65
2022/09/13 03:34:29;;;;;;;8.98;7.97;;;;;;;18.86;78.16;100975.59;5019528;28;20037;-65
2022/09/13 03:37:06;;;;;;;9.32;7.82;;;;;;;18.86;77.92;100969.53;5018385;28;20538;-65
2022/09/13 03:39:41;;;;;;;12.75;8.20;;;;;;;18.82;77.99;100962.63;5018773;28;20084;-65
2022/09/13 03:42:20;;;;;;;14.80;9.00;;;;;;;18.81;78.35;100963.47;5016637;28;20026;-65
2022/09/13 03:44:48;;;;;;;10.32;8.27;;;;;;;18.78;78.88;100966.09;5011602;28;20036;-65
2022/09/13 03:47:16;;;;;;;9.63;8.38;;;;;;;18.79;78.67;100962.63;5014502;28;20034;-65
2022/09/13 03:49:41;;;;;;;11.07;8.75;;;;;;;18.76;78.61;100973.94;5017776;28;20064;-64
2022/09/13 03:52:07;;;;;;;14.52;8.15;;;;;;;18.73;78.30;100964.38;4996167;28;20061;-65
2022/09/13 03:54:37;;;;;;;10.98;8.43;;;;;;;18.75;78.30;100957.44;5018014;28;20033;-65
2022/09/13 03:57:20;;;;;;;11.95;8.40;;;;;;;18.78;77.27;100958.28;5016199;28;20042;-65
2022/09/13 03:59:48;;;;;;;10.48;8.05;;;;;;;18.78;78.04;100964.38;5016120;28;20033;-65
2022/09/13 04:02:15;;;;;;;10.47;8.10;;;;;;;18.74;78.36;100965.25;5017357;28;20408;-65
2022/09/13 04:04:42;;;;;;;12.10;8.32;;;;;;;18.75;77.81;100964.38;5019972;28;20502;-65
2022/09/13 04:07:10;;;;;;;10.38;8.13;;;;;;;18.73;78.71;100973.94;5020059;28;20104;-65
2022/09/13 04:09:36;;;;;;;9.90;7.90;;;;;;;18.65;78.29;100986.94;5017500;28;20534;-65
2022/09/13 04:12:02;;;;;;;8.75;7.57;;;;;;;18.66;78.80;100985.22;5012927;28;20128;-65
2022/09/13 04:14:27;;;;;;;11.32;8.20;;;;;;;18.66;78.52;100990.41;5017010;28;20037;-65
2022/09/13 04:16:54;;;;;;;11.90;8.20;;;;;;;18.66;78.66;100996.50;5007762;28;20797;-65
2022/09/13 04:19:20;;;;;;;10.27;8.20;;;;;;;18.62;78.58;101004.31;4995293;28;20452;-65
2022/09/13 04:21:50;;;;;;;13.82;8.07;;;;;;;18.65;77.80;100999.09;4993745;28;20094;-65
2022/09/13 04:24:16;;;;;;;;;;;;;;;18.79;77.10;100996.50;5014769;28;20064;-65
2022/09/13 04:26:41;;;;;;;10.43;7.70;;;;;;;18.63;77.76;100998.25;5016413;28;19921;-65
2022/09/13 04:29:06;;;;;;;10.68;7.82;;;;;;;18.63;77.61;101001.72;5017808;28;20025;-65
2022/09/13 04:31:32;;;;;;;13.00;7.57;;;;;;;18.57;77.55;100999.16;5015942;28;20041;-65
2022/09/13 04:33:58;;;;;;;11.18;7.88;;;;;;;18.58;78.18;100998.25;5017978;28;20041;-65
2022/09/13 04:36:24;;;;;;;12.10;7.65;;;;;;;18.49;78.30;100991.31;5019879;28;20046;-65
2022/09/13 04:38:49;;;;;;;11.32;7.78;;;;;;;18.50;78.16;100994.78;5015441;28;20041;-65
2022/09/13 04:41:15;;;;;;;11.73;8.07;;;;;;;18.49;78.30;101001.75;5016402;28;20053;-65
2022/09/13 04:43:41;;;;;;;10.23;7.95;;;;;;;18.48;79.37;101002.63;5015144;28;20037;-65
2022/09/13 04:46:06;;;;;;;10.98;7.82;;;;;;;18.47;79.10;101002.63;5015573;28;20124;-65
2022/09/13 04:48:31;;;;;;;12.70;8.20;;;;;;;18.48;79.35;101005.22;5010751;28;20108;-64
2022/09/13 04:51:04;;;;;;;9.43;8.13;;;;;;;18.49;79.71;101011.28;5018784;28;20472;-65
2022/09/13 04:53:30;;;;;;;12.00;7.93;;;;;;;18.46;79.79;101016.53;5015570;28;20041;-65
2022/09/13 04:56:03;;;;;;;10.60;7.97;;;;;;;18.44;79.79;101016.53;5020103;28;20030;-65
2022/09/13 04:58:29;;;;;;;10.00;8.10;;;;;;;18.41;80.00;101010.44;5018608;28;20124;-65
2022/09/13 05:01:06;;;;;;;9.02;7.97;;;;;;;18.47;79.57;101008.69;5016080;28;20030;-65
2022/09/13 05:03:33;;;;;;;14.20;8.18;;;;;;;18.45;79.68;101012.19;5016678;28;20045;-66
2022/09/13 05:06:10;;;;;;;12.18;8.07;;;;;;;18.47;79.67;101011.31;5014480;28;20033;-65
2022/09/13 05:08:36;;;;;;;9.60;8.35;;;;;;;18.42;80.07;101009.56;5016891;28;20087;-66
2022/09/13 05:11:03;;;;;;;9.20;8.13;;;;;;;18.41;79.58;101008.72;5018881;28;20061;-65
2022/09/13 05:13:28;;;;;;;12.68;8.15;;;;;;;18.43;79.03;101011.31;5013822;28;20571;-66
2022/09/13 05:15:59;;;;;;;11.60;8.38;;;;;;;18.44;79.30;101005.22;5000440;28;20042;-65
2022/09/13 05:18:30;;;;;;;9.80;7.95;;;;;;;18.46;79.63;101011.31;5010862;28;20030;-65
2022/09/13 05:20:57;;;;;;;11.88;8.10;;;;;;;18.41;79.09;101016.53;5013958;28;20052;-65
2022/09/13 05:23:24;;;;;;;10.68;8.05;;;;;;;18.42;79.55;101014.78;5017873;28;20124;-65
2022/09/13 05:26:04;;;;;;;11.77;8.27;;;;;;;18.45;79.84;101020.88;5016875;28;20030;-65
2022/09/13 05:28:32;;;;;;;9.70;8.48;;;;;;;18.46;79.24;101019.13;5013364;28;20477;-65
2022/09/13 05:31:06;;;;;;;9.95;8.25;;;;;;;18.46;79.91;101020.00;5017076;28;21420;-65
2022/09/13 05:33:35;;;;;;;14.05;8.10;;;;;;;18.40;79.59;101021.75;5016084;28;20104;-65
2022/09/13 05:36:00;;;;;;;14.27;8.40;;;;;;;18.41;79.70;101015.66;5015182;28;20037;-65
2022/09/13 05:38:26;;;;;;;10.07;8.07;;;;;;;18.43;79.76;101027.78;5017340;28;20317;-66
2022/09/13 05:40:56;;;;;;;11.60;8.30;;;;;;;18.42;79.97;101025.19;5015639;28;20084;-65
2022/09/13 05:43:26;;;;;;;15.48;8.70;;;;;;;18.43;80.26;101025.19;5017264;28;20060;-66
2022/09/13 05:46:06;;;;;;;11.82;8.52;;;;;;;18.47;80.58;101019.13;5012348;28;20026;-65
2022/09/13 05:48:32;;;;;;;13.25;8.80;;;;;;;18.41;80.46;101020.88;5006807;28;20365;-66
2022/09/13 05:51:09;;;;;;;10.73;8.40;;;;;;;18.48;79.98;101018.25;4999293;28;20033;-65
2022/09/13 05:53:38;;;;;;;11.80;9.00;;;;;;;18.44;81.14;101023.44;5015135;28;20820;-66
2022/09/13 05:56:04;;;;;;;11.60;8.80;;;;;;;18.44;81.10;101023.44;5016107;28;20033;-65
2022/09/13 05:58:29;;;;;;;15.65;9.15;;;;;;;18.40;80.59;101016.53;5014988;28;20086;-65
2022/09/13 06:00:56;;;;;;;13.32;8.75;;;;;;;18.44;80.20;101023.44;4996410;28;20128;-65
2022/09/13 06:03:23;;;;;;;11.98;8.77;;;;;;;18.37;81.20;101021.72;5019711;28;20037;-65
2022/09/13 06:05:48;;;;;;;16.00;9.55;;;;;;;18.44;81.39;101021.75;5018097;28;20021;-65
2022/09/13 06:08:14;;;;;;;19.17;9.82;;;;;;;18.42;81.33;101018.25;5016313;28;20377;-63
2022/09/13 06:10:39;;;;;;;15.38;9.55;;;;;;;18.44;81.24;101019.13;4996268;28;20116;-64
2022/09/13 06:13:05;;;;;;;25.48;10.23;;;;;;;18.43;81.27;101017.38;5013562;28;20471;-65
2022/09/13 06:15:30;;;;;;;22.02;9.50;;;;;;;18.45;81.42;101020.00;5018470;28;20034;-64
2022/09/13 06:17:55;;;;;;;22.02;10.10;;;;;;;18.46;81.33;101022.59;5018043;28;20033;-65
2022/09/13 06:20:21;;;;;;;16.77;9.23;;;;;;;18.48;81.67;101025.19;5012520;28;20540;-65
2022/09/13 06:22:47;;;;;;;17.77;9.60;;;;;;;18.48;81.38;101022.59;5019073;28;20606;-65
2022/09/13 06:25:12;;;;;;;14.60;9.13;;;;;;;18.52;81.15;101031.28;5019007;28;20029;-64
2022/09/13 06:27:38;;;;;;;11.77;9.65;;;;;;;18.52;80.37;101032.13;5018047;28;20076;-64
2022/09/13 06:30:04;;;;;;;10.75;9.65;;;;;;;18.54;80.76;101024.31;5017465;28;20548;-63
2022/09/13 06:32:30;;;;;;;13.32;9.25;;;;;;;18.58;81.21;101026.06;5001959;28;20572;-64
2022/09/13 06:34:55;;;;;;;10.98;9.48;;;;;;;18.56;81.14;101013.00;5020651;28;20029;-65
2022/09/13 06:37:21;;;;;;;13.05;9.80;;;;;;;18.62;80.21;101017.34;5019256;28;20041;-65
2022/09/13 06:39:46;;;;;;;14.60;10.00;;;;;;;18.61;80.95;101018.22;5015698;28;20033;-66
2022/09/13 06:42:12;;;;;;;12.40;10.18;;;;;;;18.63;80.80;101013.88;5022736;28;20109;-66
2022/09/13 06:44:37;;;;;;;14.88;10.40;;;;;;;18.67;81.07;101016.50;5000216;28;20026;-66
2022/09/13 06:47:03;;;;;;;14.15;10.25;;;;;;;18.67;80.82;101015.63;5020090;28;20049;-66
2022/09/13 06:49:30;;;;;;;14.95;10.35;;;;;;;18.67;80.99;101015.63;4994318;28;20034;-66
2022/09/13 06:51:56;;;;;;;13.40;10.45;;;;;;;18.69;81.15;101009.56;5013278;28;20033;-66
2022/09/13 06:54:21;;;;;;;13.45;10.60;;;;;;;18.77;81.97;101011.25;4997786;28;20087;-66
2022/09/13 06:56:46;;;;;;;14.05;9.60;;;;;;;18.81;81.97;101010.38;5018263;28;20041;-66
2022/09/13 06:59:12;;;;;;;14.55;11.05;;;;;;;18.86;81.21;101011.22;5016066;28;20061;-66
2022/09/13 07:01:42;;;;;;;15.45;11.05;;;;;;;18.92;81.64;101012.06;5003588;28;20045;-66
2022/09/13 07:04:30;;;;;;;17.73;11.10;;;;;;;19.07;80.65;101021.56;5019878;28;20580;-66
2022/09/13 07:06:58;;;;;;;16.70;12.23;;;;;;;19.12;80.49;101013.75;5019763;28;20080;-65
2022/09/13 07:09:24;;;;;;;14.88;11.70;;;;;;;19.18;80.46;101011.97;5018691;28;20052;-67
2022/09/13 07:11:52;;;;;;;14.73;12.35;;;;;;;19.25;80.17;101018.88;5019107;28;20041;-67
2022/09/13 07:14:23;;;;;;;16.88;12.65;;;;;;;19.31;79.68;101017.97;5001429;28;20078;-67
2022/09/13 07:16:50;;;;;;;19.77;13.38;;;;;;;19.29;79.94;101017.09;5019669;28;20113;-67
2022/09/13 07:19:26;;;;;;;19.73;12.80;;;;;;;19.37;79.49;101014.47;5021802;28;20029;-67
2022/09/13 07:21:52;;;;;;;25.65;12.95;;;;;;;19.39;80.09;101017.94;5021795;28;20451;-67
2022/09/13 07:24:19;;;;;;;21.38;13.43;;;;;;;19.47;80.09;101019.59;5008999;28;20037;-66
2022/09/13 07:26:46;;;;;;;17.90;14.63;;;;;;;19.49;79.54;101019.63;5017212;28;20033;-67
2022/09/13 07:29:15;;;;;;;18.02;13.82;;;;;;;19.52;80.32;101019.59;5017720;28;20029;-67
2022/09/13 07:31:43;;;;;;;21.50;13.50;;;;;;;19.55;80.40;101024.81;5019171;28;20484;-67
2022/09/13 07:34:14;;;;;;;20.93;14.10;;;;;;;19.60;80.15;101027.41;5001150;28;20037;-66
2022/09/13 07:36:41;;;;;;;22.60;14.45;;;;;;;19.60;80.07;101028.28;5014964;28;20304;-67
2022/09/13 07:39:07;;;;;;;20.67;14.52;;;;;;;19.68;79.80;101028.22;5016529;28;20033;-66
2022/09/13 07:41:33;;;;;;;20.60;15.05;;;;;;;19.73;79.92;101032.53;4994053;28;20033;-66
2022/09/13 07:44:00;;;;;;;21.58;14.70;;;;;;;19.85;80.45;101038.56;5019580;28;20118;-66
2022/09/13 07:46:27;;;;;;;21.60;16.05;;;;;;;19.92;80.43;101042.84;5012979;28;20495;-66
2022/09/13 07:48:55;;;;;;;21.15;16.10;;;;;;;19.97;80.30;101039.31;5018985;28;20026;-66
2022/09/13 07:51:26;;;;;;;24.08;16.17;;;;;;;20.09;79.68;101048.81;5015346;28;20041;-66
2022/09/13 07:53:55;;;;;;;22.13;15.88;;;;;;;20.14;79.73;101053.97;5008967;28;20021;-66
2022/09/13 07:56:23;;;;;;;26.48;17.92;;;;;;;20.18;79.47;101053.94;5014394;28;20049;-66
2022/09/13 07:58:50;;;;;;;21.67;17.30;;;;;;;20.28;78.94;101054.72;4998383;28;20033;-66
2022/09/13 08:01:41;;;;;;;25.77;17.33;;;;;;;20.39;79.62;101054.63;5015645;28;20084;-67
2022/09/13 08:04:10;;;;;;;24.65;18.50;;;;;;;20.47;79.03;101045.88;4999098;28;20036;-66
2022/09/13 08:06:37;;;;;;;25.40;18.20;;;;;;;20.50;78.48;101047.56;5016610;28;20033;-66
2022/09/13 08:09:04;;;;;;;20.85;17.42;;;;;;;20.57;78.87;101042.28;5016631;28;20061;-67
2022/09/13 08:11:40;;;;;;;25.63;18.60;;;;;;;20.67;79.23;101043.03;5017921;28;20045;-65
2022/09/13 08:14:08;;;;;;;23.13;18.35;;;;;;;20.69;79.23;101046.53;5016654;28;20040;-66
2022/09/13 08:16:34;;;;;;;24.83;18.63;;;;;;;20.77;78.58;101049.06;4998378;28;20377;-67
2022/09/13 08:19:02;;;;;;;27.48;19.75;;;;;;;20.76;78.77;101045.56;5016148;28;20036;-66
2022/09/13 08:21:36;;;;;;;26.63;20.70;;;;;;;20.87;78.45;101050.69;5017692;28;20388;-69
2022/09/13 08:24:02;;;;;;;26.30;18.42;;;;;;;20.86;78.53;101046.31;5008271;28;20737;-71
2022/09/13 08:26:31;;;;;;;25.92;20.23;;;;;;;20.92;78.53;101056.69;5019400;28;20095;-69
2022/09/13 08:28:58;;;;;;;29.15;20.60;;;;;;;21.01;78.56;101055.75;5014162;28;20519;-70
2022/09/13 08:31:24;;;;;;;25.73;19.95;;;;;;;21.02;78.22;101057.47;4994094;28;20037;-67
2022/09/13 08:33:49;;;;;;;27.55;20.23;;;;;;;21.09;78.21;101059.13;5012153;28;20076;-67
2022/09/13 08:36:15;;;;;;;25.50;20.02;;;;;;;21.14;78.02;101059.94;4999415;28;20385;-68
2022/09/13 08:38:49;;;;;;;27.50;19.73;;;;;;;21.26;78.62;101069.38;5015561;28;20017;-66
2022/09/13 08:41:31;;;;;;;28.92;20.20;;;;;;;21.31;78.10;101068.47;5015685;28;20029;-68
2022/09/13 08:44:03;;;;;;;28.77;21.60;;;;;;;21.31;78.05;101068.47;5015029;28;20569;-69
2022/09/13 08:46:34;;;;;;;30.27;21.77;;;;;;;21.34;77.98;101068.41;5012569;28;20408;-69
2022/09/13 08:49:03;;;;;;;24.33;18.50;;;;;;;21.39;77.23;101068.38;5017644;28;20076;-67
2022/09/13 08:51:40;;;;;;;23.95;17.85;;;;;;;21.43;77.84;101062.22;5016174;28;20032;-66
2022/09/13 08:54:11;;;;;;;22.80;17.85;;;;;;;21.47;77.29;101068.25;5019686;28;20029;-67
2022/09/13 08:57:02;;;;;;;25.20;18.55;;;;;;;21.54;77.12;101069.94;5009956;28;20128;-67
2022/09/13 08:59:52;;;;;;;24.55;16.90;;;;;;;21.63;77.17;101061.94;5016397;28;20033;-67
2022/09/13 09:02:29;;;;;;;22.17;16.50;;;;;;;21.72;77.36;101064.44;5002566;28;20034;-68
2022/09/13 09:05:22;;;;;;;21.10;16.75;;;;;;;21.79;77.00;101066.06;5019616;28;20068;-67
2022/09/13 09:08:01;;;;;;;23.13;16.98;;;;;;;21.89;75.91;101057.16;5015274;28;20033;-67
2022/09/13 09:10:28;;;;;;;;;;;;;;;21.98;76.69;101061.41;5016170;28;20033;-67
2022/09/13 09:12:58;;;;;;;26.63;17.40;;;;;;;22.02;76.43;101056.97;5017236;28;19921;-66
2022/09/13 09:15:28;;;;;;;23.75;17.02;;;;;;;22.09;76.25;101053.38;5014788;28;20013;-67
2022/09/13 09:18:06;;;;;;;24.08;18.00;;;;;;;22.09;74.60;101046.44;5018675;28;20542;-67
2022/09/13 09:20:39;;;;;;;24.15;16.90;;;;;;;22.19;75.34;101044.50;5015657;28;20037;-67
2022/09/13 09:23:11;;;;;;;24.27;16.00;;;;;;;22.19;75.47;101039.25;5019953;28;20047;-67
2022/09/13 09:25:37;;;;;;;17.92;13.25;;;;;;;22.27;75.11;101037.41;5011589;28;20079;-68
2022/09/13 09:28:11;;;;;;;18.85;13.77;;;;;;;22.31;74.63;101040.81;5014108;28;20045;-67
2022/09/13 09:30:44;;;;;;;17.13;10.68;;;;;;;22.36;74.37;101037.22;5012971;28;20033;-67
2022/09/13 09:33:29;;;;;;;16.52;10.75;;;;;;;22.35;73.96;101042.50;5000725;28;20111;-67
2022/09/13 09:36:39;;;;;;;14.98;11.10;;;;;;;22.36;74.46;101041.59;5016255;28;20171;-68
2022/09/13 09:39:08;;;;;;;16.38;11.48;;;;;;;22.34;74.02;101049.50;5001769;28;20043;-68
2022/09/13 09:41:34;;;;;;;22.15;12.50;;;;;;;22.29;74.08;101048.69;5015793;28;20086;-69
2022/09/13 09:44:22;;;;;;;20.27;12.43;;;;;;;22.30;74.11;101047.81;5015486;28;20100;-68
2022/09/13 09:46:54;;;;;;;35.72;14.10;;;;;;;22.32;74.47;101047.75;5018716;28;20026;-69
2022/09/13 09:52:28;;;;;;;25.08;15.57;;;;;;;22.34;74.64;101052.09;5020596;28;20507;-70
2022/09/13 09:55:09;;;;;;;25.92;14.55;;;;;;;22.37;75.20;101046.78;5021380;28;20057;-69
2022/09/13 09:57:53;;;;;;;122.65;19.08;;;;;;;22.46;74.29;101053.66;5014221;28;20044;-69
2022/09/13 10:00:21;;;;;;;68.82;15.48;;;;;;;22.51;73.97;101049.19;5019874;28;20029;-69
2022/09/13 10:02:50;;;;;;;39.28;13.68;;;;;;;22.53;74.51;101043.91;5021202;28;20060;-69
2022/09/13 10:05:21;;;;;;;22.13;12.93;;;;;;;22.62;74.58;101047.22;5016129;28;20017;-68
2022/09/13 10:08:00;;;;;;;17.25;11.10;;;;;;;22.65;74.60;101043.69;5020949;28;20037;-68
2022/09/13 10:10:35;;;;;;;17.10;10.20;;;;;;;22.62;73.93;101044.59;5020635;28;20029;-69
2022/09/13 10:13:03;;;;;;;15.20;9.02;;;;;;;22.61;74.42;101044.63;5019645;28;20030;-69
2022/09/13 10:15:33;;;;;;;14.60;8.20;;;;;;;22.62;73.84;101048.97;5000655;28;20526;-68
2022/09/13 10:18:04;;;;;;;11.30;7.80;;;;;;;22.56;73.32;101042.09;5017883;28;21293;-68
2022/09/13 10:20:30;;;;;;;10.70;7.38;;;;;;;22.56;74.65;101036.84;5012589;28;20033;-67
2022/09/13 10:23:33;;;;;;;10.02;7.20;;;;;;;22.61;74.16;101040.25;5001784;28;20768;-68
2022/09/13 10:26:12;;;;;;;13.23;7.30;;;;;;;22.60;74.22;101032.41;4907876;29;20527;-68
2022/09/13 10:28:43;;;;;;;9.95;7.30;;;;;;;22.62;73.52;101033.25;5007773;28;20237;-68
2022/09/13 10:31:14;;;;;;;9.77;6.28;;;;;;;22.64;74.13;101029.72;5018573;28;20037;-68
2022/09/13 10:33:41;;;;;;;8.38;5.55;;;;;;;22.69;73.97;101030.50;5019285;28;20182;-66
2022/09/13 10:36:17;;;;;;;7.88;5.28;;;;;;;22.67;73.11;101037.50;5021531;28;21695;-66
2022/09/13 10:38:56;;;;;;;9.43;4.60;;;;;;;22.66;72.33;101033.16;5020877;28;20057;-67
2022/09/13 10:41:25;;;;;;;6.00;3.45;;;;;;;22.67;71.26;101027.03;5018427;28;20025;-67
2022/09/13 10:43:59;;;;;;;5.53;3.40;;;;;;;22.88;71.30;101022.31;5018100;28;20028;-68
2022/09/13 10:46:28;;;;;;;6.45;3.85;;;;;;;23.11;71.21;101016.56;5019360;28;20033;-68
2022/09/13 10:48:56;;;;;;;7.60;4.40;;;;;;;23.27;71.18;101016.19;5017942;28;20029;-66
2022/09/13 10:51:37;;;;;;;7.32;4.15;;;;;;;23.32;70.47;101016.09;5012303;28;20116;-66
2022/09/13 10:54:09;;;;;;;9.82;6.13;;;;;;;23.23;70.82;101021.53;5015603;28;20038;-66
2022/09/13 10:56:35;;;;;;;9.73;5.70;;;;;;;23.19;72.06;101025.16;5017853;28;20143;-66
2022/09/13 10:59:24;;;;;;;8.43;5.65;;;;;;;23.17;71.96;101026.91;5017591;28;20484;-67
2022/09/13 11:02:06;;;;;;;8.18;5.47;;;;;;;23.04;71.08;101026.31;5018704;28;20108;-67
2022/09/13 11:04:49;;;;;;;8.60;5.43;;;;;;;23.01;72.03;101029.88;4998932;28;20025;-67
2022/09/13 11:07:46;;;;;;;12.10;5.50;;;;;;;23.01;71.36;101021.16;5020137;28;20087;-67
2022/09/13 11:10:33;;;;;;;8.52;5.00;;;;;;;22.98;70.92;101011.56;5019308;28;20044;-67
2022/09/13 11:13:06;;;;;;;8.30;5.00;;;;;;;22.93;71.12;101023.94;5017891;28;20108;-67
2022/09/13 11:16:02;;;;;;;8.70;5.22;;;;;;;22.94;71.42;101009.94;5019804;28;20539;-68
2022/09/13 11:18:46;;;;;;;7.95;5.25;;;;;;;22.91;71.61;101011.75;5021865;28;20082;-68
2022/09/13 11:21:35;;;;;;;7.38;4.97;;;;;;;22.95;71.71;101001.16;5004571;28;20029;-68
2022/09/13 11:24:22;;;;;;;6.93;4.68;;;;;;;23.04;71.95;101000.09;5019123;28;20025;-67
2022/09/13 11:26:47;;;;;;;6.97;4.40;;;;;;;23.11;72.32;100995.56;5020180;28;20029;-68
2022/09/13 11:29:28;;;;;;;7.80;5.43;;;;;;;23.19;72.13;100991.91;5017219;28;20411;-68
2022/09/13 11:32:12;;;;;;;7.88;4.45;;;;;;;23.30;72.30;100994.31;5016165;28;20153;-68
2022/09/13 11:35:17;;;;;;;7.43;5.55;;;;;;;23.46;71.84;100993.03;5016055;28;20030;-67
2022/09/13 11:38:20;;;;;;;7.93;5.07;;;;;;;23.44;71.01;100983.47;5020412;28;20076;-67
2022/09/13 11:40:59;;;;;;;8.73;4.43;;;;;;;23.39;70.67;100991.44;4999005;28;20149;-68
2022/09/13 11:43:50;;;;;;;7.43;4.95;;;;;;;23.40;70.77;100997.56;5020333;28;20033;-68
2022/09/13 11:47:01;;;;;;;8.68;5.63;;;;;;;23.55;71.16;101000.72;5015452;28;20029;-67
2022/09/13 11:49:51;;;;;;;10.00;6.00;;;;;;;23.48;70.99;101000.91;5019059;28;20072;-68